Time;durP1;ratioP1;P1;durP2;ratioP2;P2;SDS_P1;SDS_P2;PMS_P1;PMS_P2;Temp;Humidity;BMP_temperature;BMP_pressure;BME280_temperature;BME280_humidity;BME280_pressure;Samples;Min_cycle;Max_cycle;Signal;HPM_P1;HPM_P2
2022/12/07 00:00:28;;;;;;;10.68;2.70;;;25.70;99.90;;;;;;5092441;28;20573;-80
2022/12/07 00:02:59;;;;;;;9.88;2.70;;;25.30;99.90;;;;;;5092909;28;20188;-80
2022/12/07 00:05:31;;;;;;;11.00;3.25;;;25.20;99.90;;;;;;5100060;28;20191;-80
2022/12/07 00:08:02;;;;;;;35.53;5.35;;;25.10;99.90;;;;;;5090840;28;20205;-80
2022/12/07 00:10:35;;;;;;;9.80;2.67;;;24.90;99.90;;;;;;5093178;28;20213;-80
2022/12/07 00:13:08;;;;;;;6.95;2.58;;;24.70;99.90;;;;;;5105051;28;20234;-76
2022/12/07 00:15:38;;;;;;;9.27;2.50;;;24.90;99.90;;;;;;5092336;28;20196;-80
2022/12/07 00:18:09;;;;;;;8.45;2.88;;;25.20;99.90;;;;;;5081048;28;20660;-81
2022/12/07 00:20:40;;;;;;;15.27;2.70;;;25.30;99.90;;;;;;5089693;28;20260;-81
2022/12/07 00:23:11;;;;;;;10.82;3.22;;;25.40;99.90;;;;;;5091376;28;20201;-80
2022/12/07 00:25:42;;;;;;;11.82;3.25;;;25.30;99.90;;;;;;5076881;28;20196;-79
2022/12/07 00:28:15;;;;;;;14.65;3.50;;;25.30;99.90;;;;;;5093999;28;20236;-80
2022/12/07 00:30:45;;;;;;;14.13;3.00;;;25.50;99.90;;;;;;5092424;28;20654;-81
2022/12/07 00:33:16;;;;;;;10.45;2.47;;;25.70;99.90;;;;;;5091941;28;20187;-81
2022/12/07 00:35:47;;;;;;;13.77;2.42;;;25.90;99.90;;;;;;5091218;28;20212;-81
2022/12/07 00:38:18;;;;;;;11.73;2.55;;;26.20;99.90;;;;;;5071785;28;20218;-81
2022/12/07 00:40:59;;;;;;;10.05;2.78;;;26.30;99.90;;;;;;5077077;28;20694;-82
2022/12/07 00:43:32;;;;;;;6.32;2.10;;;26.50;99.90;;;;;;5072687;28;20192;-84
2022/12/07 00:46:03;;;;;;;7.75;2.40;;;26.50;99.90;;;;;;5085388;28;20714;-83
2022/12/07 00:48:34;;;;;;;8.30;2.55;;;26.60;99.90;;;;;;5085279;28;20240;-82
2022/12/07 00:51:06;;;;;;;9.52;2.60;;;26.70;99.90;;;;;;5091823;28;20195;-83
2022/12/07 00:53:39;;;;;;;6.60;2.38;;;26.80;99.90;;;;;;5091608;28;20207;-83
2022/12/07 00:56:10;;;;;;;8.75;2.63;;;26.80;99.90;;;;;;5091413;28;20188;-81
2022/12/07 00:58:43;;;;;;;14.55;3.42;;;26.90;99.90;;;;;;5091902;28;20196;-81
2022/12/07 01:01:14;;;;;;;11.57;2.83;;;27.00;99.90;;;;;;5091784;28;20325;-81
2022/12/07 01:03:45;;;;;;;11.23;2.35;;;27.00;99.90;;;;;;5090547;28;20281;-81
2022/12/07 01:06:19;;;;;;;15.80;2.50;;;26.90;99.90;;;;;;5089687;28;20195;-82
2022/12/07 01:08:50;;;;;;;14.00;2.65;;;26.70;99.90;;;;;;5090920;28;20199;-83
2022/12/07 01:11:22;;;;;;;7.60;2.30;;;26.50;99.90;;;;;;5087603;28;20202;-80
2022/12/07 01:13:56;;;;;;;14.60;2.63;;;26.40;99.90;;;;;;5089687;28;20701;-80
2022/12/07 01:16:30;;;;;;;9.80;2.33;;;26.30;99.90;;;;;;5099420;28;20199;-80
2022/12/07 01:19:02;;;;;;;5.47;2.00;;;26.10;99.90;;;;;;5092008;28;20560;-81
2022/12/07 01:21:37;;;;;;;6.72;2.10;;;26.00;99.90;;;;;;5091781;28;20219;-81
2022/12/07 01:24:08;;;;;;;7.07;2.20;;;25.90;99.90;;;;;;5090633;28;20205;-82
2022/12/07 01:26:39;;;;;;;10.02;2.10;;;25.80;99.90;;;;;;5089768;28;20208;-81
2022/12/07 01:29:12;;;;;;;8.82;2.40;;;25.90;99.90;;;;;;5090982;28;20203;-81
2022/12/07 01:31:43;;;;;;;6.95;2.08;;;25.80;99.90;;;;;;5084292;28;20195;-80
2022/12/07 01:34:14;;;;;;;9.95;2.30;;;25.80;99.90;;;;;;5088437;28;20279;-81
2022/12/07 01:36:44;;;;;;;9.43;2.60;;;25.70;99.90;;;;;;5091333;28;20211;-81
2022/12/07 01:39:15;;;;;;;8.25;2.80;;;25.70;99.90;;;;;;5083873;28;20200;-80
2022/12/07 01:41:47;;;;;;;8.68;2.20;;;25.60;99.90;;;;;;5071230;28;20242;-81
2022/12/07 01:44:23;;;;;;;6.00;2.13;;;25.60;99.90;;;;;;5075470;28;20195;-80
2022/12/07 01:46:55;;;;;;;9.48;2.33;;;25.60;99.90;;;;;;5086378;28;20505;-81
2022/12/07 01:49:31;;;;;;;8.82;2.42;;;25.50;99.90;;;;;;5088790;28;20199;-80
2022/12/07 01:52:07;;;;;;;8.10;2.70;;;25.50;99.90;;;;;;5085260;28;20244;-80
2022/12/07 01:54:39;;;;;;;8.45;3.10;;;25.60;99.90;;;;;;5087284;28;20199;-80
2022/12/07 01:57:13;;;;;;;17.23;3.67;;;25.60;99.90;;;;;;5090384;28;20626;-81
2022/12/07 01:59:49;;;;;;;9.90;3.28;;;25.70;99.90;;;;;;5086845;28;20245;-81
2022/12/07 02:02:24;;;;;;;8.93;3.38;;;25.60;99.90;;;;;;5089572;28;20707;-81
2022/12/07 02:04:59;;;;;;;10.68;3.60;;;25.60;99.90;;;;;;5089870;28;20204;-81
2022/12/07 02:07:31;;;;;;;8.85;3.30;;;25.60;99.90;;;;;;5089305;28;20195;-81
2022/12/07 02:10:14;;;;;;;9.15;2.97;;;25.60;99.90;;;;;;5087609;28;20191;-81
2022/12/07 02:12:47;;;;;;;9.52;3.30;;;25.70;99.90;;;;;;5088377;28;20235;-81
2022/12/07 02:15:21;;;;;;;11.40;3.75;;;25.80;99.90;;;;;;5085745;28;20581;-81
2022/12/07 02:17:58;;;;;;;9.77;3.88;;;25.80;99.90;;;;;;5100083;28;20206;-80
2022/12/07 02:20:34;;;;;;;9.27;3.50;;;25.90;99.90;;;;;;5070831;28;20199;-81
2022/12/07 02:23:42;;;;;;;10.05;3.03;;;25.80;99.90;;;;;;5075893;28;20213;-82
2022/12/07 02:26:46;;;;;;;12.20;2.90;;;25.80;99.90;;;;;;5087540;28;20278;-82
2022/12/07 02:29:24;;;;;;;9.35;2.83;;;25.90;99.90;;;;;;5087145;28;20198;-82
2022/12/07 02:32:02;;;;;;;9.63;2.85;;;25.90;99.90;;;;;;5086284;28;20290;-82
2022/12/07 02:34:39;;;;;;;9.57;2.95;;;26.00;99.90;;;;;;5086403;28;20277;-81
2022/12/07 02:37:17;;;;;;;7.95;3.13;;;26.00;99.90;;;;;;5085683;28;20197;-81
2022/12/07 02:39:53;;;;;;;11.85;3.30;;;26.00;99.90;;;;;;5086875;28;20195;-81
2022/12/07 02:42:31;;;;;;;8.18;2.72;;;26.00;99.90;;;;;;5087998;28;20926;-81
2022/12/07 02:45:08;;;;;;;10.65;2.67;;;26.00;99.90;;;;;;5088476;28;20238;-81
2022/12/07 02:47:40;;;;;;;8.73;3.28;;;26.10;99.90;;;;;;5086093;28;20209;-81
2022/12/07 02:50:11;;;;;;;10.68;3.22;;;26.00;99.90;;;;;;5088240;28;20192;-81
2022/12/07 02:52:42;;;;;;;14.10;3.95;;;26.10;99.90;;;;;;5093546;28;20350;-80
2022/12/07 02:55:14;;;;;;;11.25;3.22;;;25.90;99.90;;;;;;5081568;28;20194;-80
2022/12/07 02:58:06;;;;;;;13.35;3.58;;;25.90;99.90;;;;;;5092507;28;20658;-81
2022/12/07 03:00:45;;;;;;;16.20;4.15;;;25.80;99.90;;;;;;5087046;28;20192;-83
2022/12/07 03:03:18;;;;;;;7.60;3.08;;;25.60;99.90;;;;;;5096380;28;20248;-80
2022/12/07 03:06:09;;;;;;;8.82;3.08;;;25.60;99.90;;;;;;5095077;28;20235;-80
2022/12/07 03:08:50;;;;;;;8.45;2.78;;;25.60;99.90;;;;;;5092402;28;20223;-81
2022/12/07 03:11:29;;;;;;;9.95;3.30;;;25.60;99.90;;;;;;5076938;28;20263;-81
2022/12/07 03:14:06;;;;;;;11.02;3.67;;;25.60;99.90;;;;;;5089911;28;20227;-81
2022/12/07 03:16:44;;;;;;;6.63;3.00;;;25.60;99.90;;;;;;5096900;28;20759;-81
2022/12/07 03:19:18;;;;;;;13.07;3.92;;;25.50;99.90;;;;;;5098473;28;20205;-79
2022/12/07 03:21:55;;;;;;;11.35;3.58;;;25.60;99.90;;;;;;5098312;28;20223;-80
2022/12/07 03:24:29;;;;;;;13.55;3.60;;;25.50;99.90;;;;;;5097890;28;20330;-80
2022/12/07 03:27:08;;;;;;;11.38;2.92;;;25.60;99.90;;;;;;5096848;28;20206;-81
2022/12/07 03:29:40;;;;;;;13.27;3.38;;;25.60;99.90;;;;;;5096836;28;20195;-80
2022/12/07 03:32:19;;;;;;;10.48;3.38;;;25.60;99.90;;;;;;5086299;28;20196;-80
2022/12/07 03:34:56;;;;;;;12.63;3.03;;;25.60;99.90;;;;;;5076709;28;20199;-80
2022/12/07 03:37:32;;;;;;;11.25;3.58;;;25.60;99.90;;;;;;5091719;28;20199;-80
2022/12/07 03:40:09;;;;;;;9.68;3.33;;;25.70;99.90;;;;;;5097029;28;20266;-80
2022/12/07 03:42:40;;;;;;;9.52;3.15;;;25.70;99.90;;;;;;5074485;28;20317;-80
2022/12/07 03:45:13;;;;;;;9.23;3.30;;;25.70;99.90;;;;;;5081186;28;20192;-80
2022/12/07 03:47:52;;;;;;;13.10;3.72;;;25.80;99.90;;;;;;5087360;28;20199;-79
2022/12/07 03:50:32;;;;;;;12.00;3.00;;;25.80;99.90;;;;;;5104644;28;20281;-80
2022/12/07 03:53:07;;;;;;;10.10;3.30;;;25.90;99.90;;;;;;5116572;28;20641;-80
2022/12/07 03:55:41;;;;;;;11.65;3.13;;;25.90;99.90;;;;;;5117109;28;20624;-79
2022/12/07 03:58:18;;;;;;;8.57;2.63;;;26.00;99.90;;;;;;5116253;28;20661;-79
2022/12/07 04:00:49;;;;;;;8.38;3.15;;;25.90;99.90;;;;;;5107779;28;20323;-80
2022/12/07 04:03:22;;;;;;;9.10;2.78;;;25.90;99.90;;;;;;5095396;28;20732;-80
2022/12/07 04:05:53;;;;;;;8.52;2.90;;;25.90;99.90;;;;;;5087084;28;20192;-80
2022/12/07 04:08:24;;;;;;;10.43;3.13;;;25.90;99.90;;;;;;5075134;28;20250;-80
2022/12/07 04:10:55;;;;;;;11.05;3.13;;;25.90;99.90;;;;;;5075328;28;20196;-81
2022/12/07 04:13:26;;;;;;;9.70;2.65;;;25.90;99.90;;;;;;5075175;28;20253;-81
2022/12/07 04:15:57;;;;;;;10.13;2.90;;;25.80;99.90;;;;;;5075372;28;20200;-81
2022/12/07 04:18:29;;;;;;;7.10;2.55;;;25.70;99.90;;;;;;5090020;28;20558;-80
2022/12/07 04:21:03;;;;;;;6.75;2.70;;;25.70;99.90;;;;;;5099141;28;20206;-80
2022/12/07 04:23:34;;;;;;;13.13;2.90;;;25.60;99.90;;;;;;5099504;28;20231;-80
2022/12/07 04:26:05;;;;;;;7.28;2.55;;;25.60;99.90;;;;;;5096023;28;20287;-81
2022/12/07 04:28:36;;;;;;;7.45;2.28;;;25.60;99.90;;;;;;5095982;28;20191;-82
2022/12/07 04:31:08;;;;;;;11.07;2.58;;;25.60;99.90;;;;;;5096835;28;20215;-81
2022/12/07 04:33:41;;;;;;;11.68;3.22;;;25.60;99.90;;;;;;5096062;28;20206;-81
2022/12/07 04:36:12;;;;;;;8.20;2.60;;;25.60;99.90;;;;;;5092030;28;20195;-81
2022/12/07 04:38:43;;;;;;;6.18;2.22;;;25.60;99.90;;;;;;5089080;28;20196;-81
2022/12/07 04:41:15;;;;;;;9.05;2.00;;;25.70;99.90;;;;;;5095032;28;20211;-81
2022/12/07 04:43:46;;;;;;;2.83;0.88;;;25.60;99.90;;;;;;5094578;28;20203;-82
2022/12/07 04:46:17;;;;;;;1.17;0.43;;;25.60;99.90;;;;;;5090639;28;20679;-81
2022/12/07 04:48:50;;;;;;;1.60;0.50;;;25.70;72.60;;;;;;5093214;28;20210;-81
2022/12/07 04:51:24;;;;;;;0.55;0.40;;;25.90;55.50;;;;;;5094495;28;20680;-80
2022/12/07 04:53:55;;;;;;;6.13;0.60;;;26.20;53.70;;;;;;5094974;28;20202;-81
2022/12/07 04:56:27;;;;;;;1.75;0.50;;;26.30;49.90;;;;;;5095414;28;20238;-81
2022/12/07 04:59:00;;;;;;;3.05;0.50;;;26.50;47.50;;;;;;5095552;28;20648;-81
2022/12/07 05:01:31;;;;;;;1.17;0.50;;;26.60;46.10;;;;;;5094363;28;20282;-82
2022/12/07 05:04:05;;;;;;;5.80;0.70;;;26.60;47.10;;;;;;5095435;28;20195;-80
2022/12/07 05:06:36;;;;;;;2.63;0.60;;;26.70;44.90;;;;;;5078282;28;20199;-81
2022/12/07 05:09:07;;;;;;;5.20;0.68;;;26.80;46.80;;;;;;5082821;28;20203;-81
2022/12/07 05:11:41;;;;;;;1.52;0.50;;;26.90;45.00;;;;;;5091452;28;20203;-81
2022/12/07 05:14:14;;;;;;;3.95;0.57;;;26.90;43.60;;;;;;5090287;28;20239;-81
2022/12/07 05:16:47;;;;;;;5.40;0.60;;;26.90;44.70;;;;;;5091183;28;20282;-82
2022/12/07 05:19:21;;;;;;;2.28;0.50;;;26.90;45.00;;;;;;5078447;28;20199;-81
2022/12/07 05:21:52;;;;;;;2.92;0.65;;;26.80;45.20;;;;;;5093319;28;20218;-81
2022/12/07 05:24:23;;;;;;;1.20;0.47;;;26.80;45.80;;;;;;5103269;28;20191;-82
2022/12/07 05:26:53;;;;;;;1.50;0.57;;;26.80;45.40;;;;;;5091351;28;20199;-82
2022/12/07 05:29:24;;;;;;;0.88;0.50;;;26.70;45.00;;;;;;5092219;28;20217;-83
2022/12/07 05:31:55;;;;;;;4.35;1.10;;;26.70;45.90;;;;;;5093575;28;20562;-83
2022/12/07 05:34:28;;;;;;;3.13;0.40;;;26.70;45.10;;;;;;5091035;28;20199;-83
2022/12/07 05:36:59;;;;;;;1.38;0.50;;;26.70;43.40;;;;;;5076992;28;20528;-83
2022/12/07 05:39:29;;;;;;;1.65;0.68;;;26.70;43.20;;;;;;5091141;28;20680;-82
2022/12/07 05:42:16;;;;;;;1.85;0.70;;;26.70;43.50;;;;;;5094060;28;20222;-81
2022/12/07 05:44:49;;;;;;;1.90;0.32;;;26.70;43.60;;;;;;5088614;28;20192;-80
2022/12/07 05:47:20;;;;;;;3.90;0.60;;;26.60;43.60;;;;;;5090218;28;20650;-82
2022/12/07 05:49:54;;;;;;;3.90;0.70;;;26.60;44.30;;;;;;5091977;28;20195;-83
2022/12/07 05:52:25;;;;;;;2.13;0.47;;;26.50;44.60;;;;;;5090557;28;20282;-82
2022/12/07 05:54:56;;;;;;;1.63;0.65;;;26.50;46.00;;;;;;5091034;28;20248;-83
2022/12/07 05:57:28;;;;;;;1.73;0.50;;;26.50;46.70;;;;;;5090782;28;20207;-82
2022/12/07 05:59:57;;;;;;;2.72;0.50;;;26.40;47.50;;;;;;5090507;28;20661;-81
2022/12/07 06:02:28;;;;;;;1.52;0.60;;;26.30;47.20;;;;;;5090296;28;20223;-82
2022/12/07 06:05:01;;;;;;;2.65;0.60;;;26.30;48.10;;;;;;5090634;28;20774;-81
2022/12/07 06:07:32;;;;;;;2.25;0.50;;;26.30;49.00;;;;;;5090292;28;20199;-81
2022/12/07 06:10:03;;;;;;;1.20;0.50;;;26.20;49.00;;;;;;5089543;28;20599;-81
2022/12/07 06:12:35;;;;;;;2.58;0.50;;;26.10;49.70;;;;;;5090363;28;20199;-81
2022/12/07 06:15:07;;;;;;;1.42;0.60;;;26.10;49.80;;;;;;5090552;28;20214;-81
2022/12/07 06:17:38;;;;;;;1.83;0.50;;;26.10;51.10;;;;;;5090240;28;20205;-81
2022/12/07 06:20:12;;;;;;;2.65;0.85;;;26.10;51.20;;;;;;5090472;28;20238;-81
2022/12/07 06:22:42;;;;;;;1.95;0.70;;;26.00;52.10;;;;;;5090468;28;20218;-81
2022/12/07 06:25:13;;;;;;;1.75;0.52;;;26.00;54.00;;;;;;5090451;28;20191;-81
2022/12/07 06:27:44;;;;;;;1.92;0.52;;;26.00;55.20;;;;;;5091241;28;20206;-81
2022/12/07 06:30:15;;;;;;;2.95;0.50;;;25.90;56.20;;;;;;5090475;28;20194;-82
2022/12/07 06:32:46;;;;;;;2.67;0.55;;;25.80;57.70;;;;;;5089982;28;20195;-84
2022/12/07 06:35:19;;;;;;;2.53;0.50;;;25.70;58.40;;;;;;5070495;28;20624;-81
2022/12/07 06:37:50;;;;;;;2.53;0.45;;;25.70;58.80;;;;;;5085245;28;20294;-81
2022/12/07 06:40:21;;;;;;;1.55;0.52;;;25.60;59.40;;;;;;5089901;28;20569;-80
2022/12/07 06:42:52;;;;;;;1.67;0.40;;;25.60;60.90;;;;;;5089891;28;20313;-80
2022/12/07 06:45:24;;;;;;;1.20;0.45;;;25.70;61.60;;;;;;5090106;28;20805;-80
2022/12/07 06:47:54;;;;;;;1.73;0.50;;;25.70;60.80;;;;;;5087959;28;20187;-83
2022/12/07 06:50:30;;;;;;;2.55;0.50;;;25.60;61.70;;;;;;5090783;28;20573;-82
2022/12/07 06:53:01;;;;;;;2.10;0.60;;;25.70;62.60;;;;;;5089957;28;20204;-82
2022/12/07 06:55:32;;;;;;;1.42;0.60;;;25.60;63.30;;;;;;5069785;28;20283;-81
2022/12/07 06:58:03;;;;;;;1.92;0.68;;;25.60;63.80;;;;;;5070031;28;20200;-81
2022/12/07 07:00:34;;;;;;;1.92;0.55;;;25.50;64.60;;;;;;5070464;28;20200;-81
2022/12/07 07:03:05;;;;;;;2.30;0.55;;;25.50;65.10;;;;;;5088321;28;20245;-82
2022/12/07 07:05:38;;;;;;;0.80;0.68;;;25.50;65.30;;;;;;5089466;28;20241;-81
2022/12/07 07:08:09;;;;;;;2.63;0.70;;;25.50;66.40;;;;;;5090654;28;20643;-82
2022/12/07 07:10:40;;;;;;;2.42;0.60;;;25.40;66.60;;;;;;5094456;28;20207;-82
2022/12/07 07:13:13;;;;;;;0.75;0.45;;;25.30;66.70;;;;;;5090669;28;20231;-83
2022/12/07 07:15:44;;;;;;;2.95;0.60;;;25.30;66.80;;;;;;5090489;28;20191;-82
2022/12/07 07:18:15;;;;;;;1.38;0.40;;;25.20;67.80;;;;;;5086860;28;20192;-82
2022/12/07 07:20:47;;;;;;;2.05;0.68;;;25.20;68.20;;;;;;5089049;28;20199;-84
2022/12/07 07:23:18;;;;;;;2.50;0.50;;;25.20;68.90;;;;;;5090749;28;20227;-84
2022/12/07 07:25:49;;;;;;;2.90;0.60;;;25.20;70.40;;;;;;5092125;28;20203;-83
2022/12/07 07:28:20;;;;;;;2.28;0.57;;;25.20;70.00;;;;;;5092042;28;20741;-83
2022/12/07 07:30:51;;;;;;;2.00;0.60;;;25.20;70.50;;;;;;5090336;28;20196;-82
2022/12/07 07:33:22;;;;;;;0.68;0.50;;;25.10;70.30;;;;;;5075580;28;20204;-81
2022/12/07 07:35:56;;;;;;;1.23;0.52;;;25.10;72.20;;;;;;5076952;28;20570;-83
2022/12/07 07:38:27;;;;;;;1.67;0.50;;;25.00;74.00;;;;;;5091553;28;20186;-82
2022/12/07 07:40:57;;;;;;;2.80;0.70;;;25.00;74.70;;;;;;5093478;28;20697;-80
2022/12/07 07:43:28;;;;;;;3.60;0.45;;;25.00;75.40;;;;;;5093162;28;20648;-80
2022/12/07 07:45:59;;;;;;;0.93;0.40;;;25.00;76.20;;;;;;5093168;28;20202;-81
2022/12/07 07:48:30;;;;;;;0.90;0.45;;;24.90;77.10;;;;;;5093461;28;20202;-80
2022/12/07 07:51:03;;;;;;;1.48;0.43;;;24.90;77.20;;;;;;5093141;28;20199;-80
2022/12/07 07:53:33;;;;;;;0.57;0.40;;;24.90;78.50;;;;;;5089358;28;23209;-80
2022/12/07 07:56:04;;;;;;;1.13;0.40;;;24.90;79.40;;;;;;5092762;28;20205;-81
2022/12/07 07:58:35;;;;;;;0.30;0.30;;;24.80;79.80;;;;;;5093758;28;20246;-81
2022/12/07 08:01:08;;;;;;;0.30;0.30;;;24.80;80.50;;;;;;5087155;28;20573;-81
2022/12/07 08:03:39;;;;;;;0.32;0.28;;;24.80;80.90;;;;;;5092535;28;20708;-79
2022/12/07 08:06:12;;;;;;;1.00;0.40;;;24.70;80.70;;;;;;5090144;28;20649;-80
2022/12/07 08:08:44;;;;;;;2.08;0.45;;;24.70;80.50;;;;;;5091896;28;20282;-79
2022/12/07 08:11:15;;;;;;;0.43;0.30;;;24.70;80.70;;;;;;5091998;28;20199;-79
2022/12/07 08:13:49;;;;;;;3.20;0.60;;;24.70;80.50;;;;;;5092380;28;20260;-80
2022/12/07 08:16:19;;;;;;;1.40;0.45;;;24.70;81.90;;;;;;5092567;28;20577;-80
2022/12/07 08:18:50;;;;;;;0.80;0.50;;;24.70;83.20;;;;;;5092240;28;20761;-79
2022/12/07 08:21:23;;;;;;;2.05;0.40;;;24.60;82.70;;;;;;5092272;28;20278;-79
2022/12/07 08:23:54;;;;;;;1.50;0.28;;;24.60;83.00;;;;;;5092018;28;20578;-79
2022/12/07 08:26:25;;;;;;;0.63;0.38;;;24.60;84.00;;;;;;5092198;28;20191;-80
2022/12/07 08:28:57;;;;;;;0.80;0.40;;;24.60;83.60;;;;;;5093101;28;20234;-79
2022/12/07 08:31:28;;;;;;;2.55;0.60;;;24.50;83.30;;;;;;5081901;28;20204;-79
2022/12/07 08:33:59;;;;;;;0.77;0.50;;;24.50;84.00;;;;;;5085132;28;20536;-79
2022/12/07 08:36:33;;;;;;;0.63;0.30;;;24.50;84.80;;;;;;5084942;28;20196;-79
2022/12/07 08:39:04;;;;;;;0.70;0.40;;;24.50;85.50;;;;;;5085753;28;20195;-81
2022/12/07 08:41:35;;;;;;;1.02;0.50;;;24.50;86.80;;;;;;5083680;28;20582;-80
2022/12/07 08:44:06;;;;;;;0.50;0.40;;;24.50;87.50;;;;;;5092000;28;20329;-79
2022/12/07 08:46:40;;;;;;;2.72;0.30;;;24.50;88.50;;;;;;5076700;28;20286;-80
2022/12/07 08:49:14;;;;;;;1.23;0.40;;;24.50;89.10;;;;;;5089760;28;20191;-78
2022/12/07 08:51:47;;;;;;;0.65;0.40;;;24.50;89.50;;;;;;5092179;28;20194;-79
2022/12/07 08:54:19;;;;;;;3.03;0.50;;;24.50;90.40;;;;;;5091619;28;20195;-79
2022/12/07 08:56:53;;;;;;;1.48;0.60;;;24.50;90.50;;;;;;5091589;28;20191;-79
2022/12/07 08:59:24;;;;;;;0.60;0.60;;;24.40;90.60;;;;;;5091419;28;20199;-79
2022/12/07 09:01:55;;;;;;;1.83;0.65;;;24.40;90.70;;;;;;5091354;28;20205;-80
2022/12/07 09:04:26;;;;;;;0.77;0.50;;;24.40;90.60;;;;;;5091229;28;20219;-80
2022/12/07 09:06:59;;;;;;;1.45;0.60;;;24.40;91.10;;;;;;5084670;28;20705;-80
2022/12/07 09:09:30;;;;;;;1.63;0.80;;;24.40;91.80;;;;;;5085256;28;20275;-80
2022/12/07 09:12:00;;;;;;;3.25;0.80;;;24.30;91.10;;;;;;5091325;28;20203;-80
2022/12/07 09:14:31;;;;;;;1.55;0.60;;;24.30;91.20;;;;;;5090967;28;20263;-79
2022/12/07 09:17:10;;;;;;;2.47;0.50;;;24.30;91.30;;;;;;5089317;28;20237;-79
2022/12/07 09:19:42;;;;;;;1.25;0.55;;;24.30;91.50;;;;;;5085889;28;20294;-80
2022/12/07 09:22:14;;;;;;;2.92;0.50;;;24.20;91.60;;;;;;5088775;28;20195;-79
2022/12/07 09:24:46;;;;;;;1.33;0.55;;;24.20;91.80;;;;;;5091021;28;20249;-79
2022/12/07 09:27:18;;;;;;;1.73;0.60;;;24.20;92.10;;;;;;5091139;28;20199;-80
2022/12/07 09:29:49;;;;;;;1.13;0.38;;;24.10;92.40;;;;;;5090807;28;20203;-77
2022/12/07 09:32:22;;;;;;;0.95;0.50;;;24.20;92.70;;;;;;5092039;28;20195;-79
2022/12/07 09:34:53;;;;;;;1.25;0.60;;;24.10;93.00;;;;;;5090892;28;20690;-80
2022/12/07 09:37:26;;;;;;;2.65;0.90;;;24.10;93.80;;;;;;5087875;28;20245;-79
2022/12/07 09:39:56;;;;;;;2.05;0.93;;;24.00;93.70;;;;;;5090439;28;20203;-79
2022/12/07 09:42:35;;;;;;;2.45;0.90;;;24.00;93.80;;;;;;5090779;28;20211;-79
2022/12/07 09:45:09;;;;;;;2.30;1.30;;;24.00;94.30;;;;;;5089997;28;20233;-80
2022/12/07 09:47:40;;;;;;;1.58;0.90;;;24.10;93.90;;;;;;5080000;28;20192;-79
2022/12/07 09:50:18;;;;;;;2.75;0.90;;;23.90;93.80;;;;;;5088599;28;20223;-79
2022/12/07 09:52:51;;;;;;;2.08;1.20;;;23.90;93.70;;;;;;5089549;28;20199;-79
2022/12/07 09:55:27;;;;;;;2.88;1.10;;;24.00;94.00;;;;;;5079159;28;20196;-79
2022/12/07 09:57:58;;;;;;;2.65;0.80;;;23.90;94.90;;;;;;5089816;28;20302;-80
2022/12/07 10:00:29;;;;;;;1.02;0.68;;;23.90;95.20;;;;;;5085998;28;20196;-79
2022/12/07 10:03:01;;;;;;;0.80;0.80;;;23.90;95.80;;;;;;5076801;28;20185;-79
2022/12/07 10:05:36;;;;;;;1.50;0.95;;;23.90;96.40;;;;;;5077903;28;20309;-79
2022/12/07 10:08:11;;;;;;;1.45;0.90;;;23.90;97.10;;;;;;5090629;28;20195;-80
2022/12/07 10:10:42;;;;;;;1.52;0.60;;;23.80;98.20;;;;;;5090097;28;20190;-78
2022/12/07 10:13:13;;;;;;;0.77;0.50;;;23.80;98.80;;;;;;5083846;28;20223;-79
2022/12/07 10:15:51;;;;;;;1.83;0.60;;;23.80;99.40;;;;;;5088616;28;20216;-79
2022/12/07 10:18:30;;;;;;;1.30;0.57;;;23.70;99.90;;;;;;5086604;28;20199;-80
2022/12/07 10:21:14;;;;;;;1.60;0.68;;;23.70;99.90;;;;;;5090034;28;20206;-79
2022/12/07 10:24:03;;;;;;;1.85;0.60;;;23.70;99.90;;;;;;5090088;28;20215;-78
2022/12/07 10:26:38;;;;;;;2.38;0.50;;;23.70;99.90;;;;;;5090256;28;20240;-77
2022/12/07 10:29:26;;;;;;;0.52;0.52;;;23.70;99.90;;;;;;5090572;28;20198;-79
2022/12/07 10:31:59;;;;;;;0.93;0.57;;;23.60;99.90;;;;;;5082740;28;20200;-80
2022/12/07 10:34:32;;;;;;;1.30;0.50;;;23.70;99.90;;;;;;5092317;28;20726;-79
2022/12/07 10:37:20;;;;;;;1.23;0.60;;;23.60;99.90;;;;;;5089276;28;20202;-80
2022/12/07 10:39:53;;;;;;;1.17;0.70;;;23.60;99.90;;;;;;5089996;28;20750;-79
2022/12/07 10:42:26;;;;;;;0.73;0.50;;;23.60;99.90;;;;;;5081569;28;20570;-80
2022/12/07 10:45:12;;;;;;;1.20;0.60;;;23.50;99.90;;;;;;5084668;28;20231;-80
2022/12/07 10:47:50;;;;;;;2.17;0.73;;;23.60;99.90;;;;;;5089759;28;20195;-80
2022/12/07 10:50:50;;;;;;;2.20;0.70;;;23.50;99.90;;;;;;5069693;28;20224;-79
2022/12/07 10:53:40;;;;;;;0.73;0.50;;;23.40;99.90;;;;;;5084470;28;20279;-78
2022/12/07 10:56:33;;;;;;;2.70;0.70;;;23.40;99.90;;;;;;5071728;28;20206;-80
2022/12/07 10:59:22;;;;;;;1.85;0.63;;;23.40;99.90;;;;;;5087960;28;20219;-80
2022/12/07 11:01:57;;;;;;;0.88;0.40;;;23.40;99.90;;;;;;5090348;28;20235;-79
2022/12/07 11:04:35;;;;;;;1.10;0.60;;;23.40;99.90;;;;;;5089355;28;20268;-80
2022/12/07 11:07:16;;;;;;;1.33;0.60;;;23.40;99.90;;;;;;5086130;28;20278;-80
2022/12/07 11:10:14;;;;;;;1.30;0.60;;;23.40;99.90;;;;;;5079615;28;20565;-80
2022/12/07 11:13:02;;;;;;;0.98;0.60;;;23.40;99.90;;;;;;5065550;28;20650;-79
2022/12/07 11:15:45;;;;;;;1.55;0.40;;;23.40;99.90;;;;;;5086528;28;20569;-80
2022/12/07 11:18:25;;;;;;;1.30;0.50;;;23.40;99.90;;;;;;5084431;28;20199;-80
2022/12/07 11:21:03;;;;;;;1.10;0.40;;;23.40;99.90;;;;;;5090424;28;20199;-80
2022/12/07 11:23:46;;;;;;;1.10;0.50;;;23.40;99.90;;;;;;5093515;28;20228;-79
2022/12/07 11:26:28;;;;;;;0.75;0.40;;;23.40;99.90;;;;;;5093184;28;20238;-78
2022/12/07 11:29:18;;;;;;;1.25;0.50;;;23.30;99.90;;;;;;5089841;28;20658;-78
2022/12/07 11:32:07;;;;;;;1.42;0.60;;;23.30;99.90;;;;;;5076444;28;20200;-77
2022/12/07 11:34:49;;;;;;;1.15;0.60;;;23.30;99.90;;;;;;5084190;28;20196;-76
2022/12/07 11:37:24;;;;;;;1.00;0.52;;;23.30;99.90;;;;;;5094002;28;20221;-80
2022/12/07 11:39:57;;;;;;;2.45;0.60;;;23.30;99.90;;;;;;5091002;28;20234;-80
2022/12/07 11:42:31;;;;;;;3.10;0.80;;;23.20;99.90;;;;;;5093065;28;20564;-80
2022/12/07 11:45:12;;;;;;;1.80;0.70;;;23.20;99.90;;;;;;5092673;28;20713;-80
2022/12/07 11:47:50;;;;;;;1.70;0.60;;;23.20;99.90;;;;;;5093469;28;20199;-81
2022/12/07 11:50:35;;;;;;;1.40;0.73;;;23.20;99.90;;;;;;5092120;28;20201;-80
2022/12/07 11:53:13;;;;;;;3.90;0.77;;;23.20;99.90;;;;;;5078588;28;20674;-79
2022/12/07 11:55:48;;;;;;;1.25;0.50;;;23.10;99.90;;;;;;5087469;28;20244;-79
2022/12/07 11:58:38;;;;;;;1.10;0.60;;;23.10;99.90;;;;;;5073435;28;20216;-79
2022/12/07 12:01:22;;;;;;;1.45;0.80;;;23.10;99.90;;;;;;5079750;28;20218;-79
2022/12/07 12:03:54;;;;;;;1.17;0.50;;;23.10;99.90;;;;;;5072343;28;20219;-80
2022/12/07 12:06:25;;;;;;;1.13;0.50;;;23.00;99.90;;;;;;5072644;28;20251;-80
2022/12/07 12:09:02;;;;;;;0.75;0.60;;;23.00;99.90;;;;;;5072393;28;20654;-80
2022/12/07 12:11:49;;;;;;;2.13;0.60;;;23.00;99.90;;;;;;5089608;28;20199;-79
2022/12/07 12:14:37;;;;;;;1.13;0.55;;;23.00;99.90;;;;;;5085334;28;20235;-79
2022/12/07 12:17:26;;;;;;;0.80;0.60;;;22.90;99.90;;;;;;5093759;28;20199;-80
2022/12/07 12:20:07;;;;;;;1.10;0.60;;;23.00;99.90;;;;;;5094672;28;20203;-80
2022/12/07 12:22:42;;;;;;;1.02;0.57;;;23.00;99.90;;;;;;5097286;28;20235;-78
2022/12/07 12:25:23;;;;;;;1.77;0.63;;;23.00;99.90;;;;;;5087670;28;20219;-79
2022/12/07 12:27:55;;;;;;;1.85;0.68;;;23.00;99.90;;;;;;5095554;28;20192;-79
2022/12/07 12:30:35;;;;;;;1.13;0.70;;;23.00;99.90;;;;;;5095969;28;20286;-79
2022/12/07 12:33:16;;;;;;;1.20;0.60;;;22.90;99.90;;;;;;5093412;28;20196;-79
2022/12/07 12:35:47;;;;;;;1.13;0.70;;;22.90;99.90;;;;;;5092353;28;20195;-80
2022/12/07 12:38:51;;;;;;;1.10;0.50;;;22.90;99.90;;;;;;5097914;28;20624;-79
2022/12/07 12:42:11;;;;;;;1.27;0.50;;;22.80;99.90;;;;;;5081472;28;20191;-79
2022/12/07 12:45:07;;;;;;;1.40;0.60;;;22.80;99.90;;;;;;5089772;28;20579;-80
2022/12/07 12:48:00;;;;;;;1.13;0.50;;;22.80;99.90;;;;;;5094436;28;20199;-78
2022/12/07 12:50:35;;;;;;;2.40;0.70;;;22.80;99.90;;;;;;5093428;28;20752;-78
2022/12/07 12:53:23;;;;;;;2.20;0.65;;;22.70;99.90;;;;;;5093067;28;20211;-79
2022/12/07 12:56:26;;;;;;;0.63;0.50;;;22.60;99.90;;;;;;5082409;28;20352;-78
2022/12/07 12:59:24;;;;;;;1.10;0.70;;;22.60;99.90;;;;;;5091746;28;20195;-79
2022/12/07 13:01:57;;;;;;;1.30;0.60;;;22.60;99.90;;;;;;5086033;28;20318;-79
2022/12/07 13:04:58;;;;;;;1.08;0.70;;;22.60;99.90;;;;;;5062517;28;20601;-79
2022/12/07 13:08:09;;;;;;;1.90;0.68;;;22.60;99.90;;;;;;5093710;28;20672;-79
2022/12/07 13:10:45;;;;;;;1.20;0.73;;;22.50;99.90;;;;;;5089636;28;20650;-78
2022/12/07 13:13:37;;;;;;;0.63;0.50;;;22.50;99.90;;;;;;5092187;28;20227;-78
2022/12/07 13:16:51;;;;;;;1.10;0.68;;;22.50;99.90;;;;;;5086870;28;20758;-77
2022/12/07 13:20:03;;;;;;;0.70;0.43;;;22.40;99.90;;;;;;5071059;28;20725;-78
2022/12/07 13:22:54;;;;;;;0.90;0.50;;;22.40;99.90;;;;;;5090472;28;20252;-77
2022/12/07 13:25:47;;;;;;;2.75;0.60;;;22.40;99.90;;;;;;5069396;28;20228;-79
2022/12/07 13:28:21;;;;;;;1.05;0.40;;;22.40;99.90;;;;;;5089254;28;20207;-77